Time;durP1;ratioP1;P1;durP2;ratioP2;P2;SDS_P1;SDS_P2;PMS_P1;PMS_P2;Temp;Humidity;BMP_temperature;BMP_pressure;BME280_temperature;BME280_humidity;BME280_pressure;Samples;Min_cycle;Max_cycle;Signal;HPM_P1;HPM_P2
2022/07/17 00:01:01;;;;;;;10.07;5.38;;;;;;;17.60;91.82;95351.44;5065389;28;20433;-68
2022/07/17 00:03:28;;;;;;;8.38;6.53;;;;;;;17.67;92.38;95365.16;5063859;28;20143;-66
2022/07/17 00:05:56;;;;;;;14.25;5.60;;;;;;;17.61;91.88;95350.41;5067783;28;20167;-68
2022/07/17 00:08:23;;;;;;;5.28;4.78;;;;;;;17.61;93.45;95360.94;5063177;28;20053;-67
2022/07/17 00:10:50;;;;;;;10.73;5.32;;;;;;;17.66;93.15;95358.28;5064284;28;20143;-67
2022/07/17 00:13:17;;;;;;;6.07;5.28;;;;;;;17.69;92.59;95368.31;5060048;28;20044;-67
2022/07/17 00:15:43;;;;;;;7.68;5.22;;;;;;;17.57;92.65;95349.31;5064598;28;20052;-67
2022/07/17 00:18:10;;;;;;;6.22;5.43;;;;;;;17.63;93.23;95358.00;5066322;28;20041;-66
2022/07/17 00:20:37;;;;;;;7.50;5.22;;;;;;;17.62;93.30;95362.50;5067814;28;20040;-67
2022/07/17 00:23:04;;;;;;;7.53;5.82;;;;;;;17.57;93.26;95362.50;5092172;27;20045;-66
2022/07/17 00:25:34;;;;;;;6.13;4.88;;;;;;;17.53;94.05;95371.97;5068623;28;20106;-66
2022/07/17 00:28:02;;;;;;;8.75;5.43;;;;;;;17.50;93.91;95369.84;5076303;28;20048;-66
2022/07/17 00:30:30;;;;;;;9.65;6.22;;;;;;;17.46;94.13;95374.06;5063987;28;20095;-68
2022/07/17 00:32:57;;;;;;;7.78;5.40;;;;;;;17.41;94.36;95376.69;5069649;28;20709;-68
2022/07/17 00:35:24;;;;;;;6.85;5.13;;;;;;;17.26;94.99;95375.59;5064367;28;20063;-67
2022/07/17 00:37:51;;;;;;;9.50;6.22;;;;;;;17.22;95.76;95369.28;5064792;27;20047;-66
2022/07/17 00:40:21;;;;;;;7.70;5.85;;;;;;;17.15;95.76;95380.03;5065283;28;21520;-66
2022/07/17 00:42:49;;;;;;;9.30;5.63;;;;;;;17.06;95.91;95391.34;5064449;28;20687;-67
2022/07/17 00:45:17;;;;;;;8.38;5.97;;;;;;;16.98;96.39;95390.78;5074587;28;20048;-67
2022/07/17 00:47:54;;;;;;;11.35;6.68;;;;;;;16.97;96.78;95389.19;5065588;28;20064;-66
2022/07/17 00:50:40;;;;;;;6.85;5.72;;;;;;;16.95;97.29;95391.28;5063895;28;20332;-68
2022/07/17 00:53:10;;;;;;;15.13;7.00;;;;;;;16.93;97.48;95388.13;5066045;28;20051;-66
2022/07/17 00:55:39;;;;;;;6.93;6.25;;;;;;;16.83;97.41;95382.81;5059034;28;21179;-67
2022/07/17 00:58:12;;;;;;;9.93;6.57;;;;;;;16.74;98.20;95386.97;5065903;28;20445;-67
2022/07/17 01:00:39;;;;;;;7.68;6.65;;;;;;;16.69;98.92;95392.19;5060948;28;20604;-67
2022/07/17 01:03:09;;;;;;;12.73;7.43;;;;;;;16.69;98.99;95393.00;5066296;28;20614;-67
2022/07/17 01:05:36;;;;;;;7.93;6.07;;;;;;;16.69;99.41;95402.69;5064701;28;20072;-67
2022/07/17 01:08:03;;;;;;;7.75;5.93;;;;;;;16.71;99.38;95405.88;5065374;28;20059;-67
2022/07/17 01:10:30;;;;;;;10.27;6.78;;;;;;;16.67;99.32;95400.31;5068572;28;20219;-66
2022/07/17 01:12:57;;;;;;;8.35;6.72;;;;;;;16.67;99.10;95410.06;5058208;28;20056;-67
2022/07/17 01:15:24;;;;;;;7.28;6.15;;;;;;;16.68;100.00;95406.41;5070281;28;20056;-67
2022/07/17 01:17:51;;;;;;;11.88;6.88;;;;;;;16.69;99.39;95408.78;5063466;28;20163;-67
2022/07/17 01:20:18;;;;;;;12.25;6.55;;;;;;;16.68;99.98;95406.41;5066660;28;20040;-67
2022/07/17 01:22:47;;;;;;;13.13;7.03;;;;;;;16.71;99.81;95395.34;5060484;28;20033;-66
2022/07/17 01:25:16;;;;;;;7.45;6.38;;;;;;;16.71;100.00;95400.59;5067403;28;20219;-66
2022/07/17 01:27:43;;;;;;;8.35;6.32;;;;;;;16.74;99.73;95392.22;5065714;28;20047;-67
2022/07/17 01:30:11;;;;;;;8.90;6.68;;;;;;;16.73;99.86;95393.28;5061076;28;20468;-68
2022/07/17 01:32:40;;;;;;;10.68;7.00;;;;;;;16.68;99.78;95401.13;5064715;28;20051;-67
2022/07/17 01:35:10;;;;;;;9.48;7.28;;;;;;;16.62;100.00;95387.97;5060184;28;20084;-68
2022/07/17 01:37:41;;;;;;;12.20;6.50;;;;;;;16.58;100.00;95392.16;5064454;28;20036;-66
2022/07/17 01:40:10;;;;;;;9.35;6.80;;;;;;;16.54;100.00;95401.56;5061497;28;20036;-67
2022/07/17 01:42:37;;;;;;;9.30;6.85;;;;;;;16.42;100.00;95387.81;5065900;28;20526;-67
2022/07/17 01:45:04;;;;;;;9.85;7.97;;;;;;;16.49;100.00;95377.09;5065519;28;20449;-67
2022/07/17 01:47:31;;;;;;;11.57;7.47;;;;;;;16.45;100.00;95376.81;5065023;28;20581;-67
2022/07/17 01:49:58;;;;;;;8.85;7.30;;;;;;;16.44;100.00;95386.53;5059060;28;20045;-67
2022/07/17 01:52:26;;;;;;;8.95;7.38;;;;;;;16.45;100.00;95384.69;5060375;28;20054;-68
2022/07/17 01:54:53;;;;;;;12.00;7.40;;;;;;;16.50;100.00;95390.00;5060892;28;20521;-69
2022/07/17 01:57:20;;;;;;;13.35;9.02;;;;;;;16.46;100.00;95388.91;5064077;28;20123;-69
2022/07/17 01:59:48;;;;;;;13.73;10.98;;;;;;;16.38;100.00;95365.72;5058587;28;20044;-69
2022/07/17 02:02:15;;;;;;;13.65;10.00;;;;;;;16.41;100.00;95375.75;5066662;28;20536;-68
2022/07/17 02:04:43;;;;;;;20.20;10.85;;;;;;;16.40;100.00;95379.41;5059903;28;20041;-69
2022/07/17 02:07:10;;;;;;;12.73;9.88;;;;;;;16.43;100.00;95378.91;5057550;28;20048;-69
2022/07/17 02:09:37;;;;;;;18.17;9.95;;;;;;;16.51;100.00;95391.59;5059318;28;20045;-69
2022/07/17 02:12:05;;;;;;;13.75;11.25;;;;;;;16.50;100.00;95382.09;5057752;28;20043;-68
2022/07/17 02:14:32;;;;;;;13.10;9.30;;;;;;;16.49;100.00;95393.66;5062101;28;20055;-69
2022/07/17 02:17:00;;;;;;;18.10;11.07;;;;;;;16.43;100.00;95390.19;5067050;28;20123;-69
2022/07/17 02:19:27;;;;;;;15.13;10.68;;;;;;;16.47;100.00;95395.75;5061711;28;20127;-68
2022/07/17 02:21:53;;;;;;;23.13;16.92;;;;;;;16.42;100.00;95398.34;5061897;28;20049;-68
2022/07/17 02:24:20;;;;;;;42.42;33.03;;;;;;;16.33;100.00;95389.34;5062324;28;20045;-69
2022/07/17 02:26:47;;;;;;;53.72;35.95;;;;;;;16.36;100.00;95394.09;5059667;28;20474;-69
2022/07/17 02:29:14;;;;;;;31.92;24.23;;;;;;;16.29;100.00;95399.56;5060544;28;20037;-69
2022/07/17 02:31:45;;;;;;;23.30;15.35;;;;;;;16.28;100.00;95398.00;5054280;28;20064;-69
2022/07/17 02:34:11;;;;;;;19.15;14.57;;;;;;;16.30;100.00;95395.13;5059444;28;20058;-68
2022/07/17 02:36:38;;;;;;;27.48;15.32;;;;;;;16.21;100.00;95397.44;5053790;28;20048;-68
2022/07/17 02:39:05;;;;;;;27.95;17.85;;;;;;;16.11;100.00;95392.09;5058215;28;20529;-69
2022/07/17 02:41:33;;;;;;;24.85;19.65;;;;;;;16.11;100.00;95398.13;5058118;28;20068;-68
2022/07/17 02:44:00;;;;;;;33.17;23.02;;;;;;;15.98;100.00;95399.34;5055535;28;20044;-66
2022/07/17 02:46:26;;;;;;;30.05;21.05;;;;;;;15.90;100.00;95401.63;5060551;28;20679;-67
2022/07/17 02:48:53;;;;;;;24.95;19.30;;;;;;;15.78;100.00;95397.34;5053448;28;20139;-66
2022/07/17 02:51:20;;;;;;;22.38;16.42;;;;;;;15.68;100.00;95411.16;5061383;28;20040;-66
2022/07/17 02:53:48;;;;;;;17.10;13.07;;;;;;;15.54;100.00;95409.16;5059201;28;20559;-66
2022/07/17 02:56:14;;;;;;;17.30;13.13;;;;;;;15.49;100.00;95413.31;5059602;28;20033;-68
2022/07/17 02:58:41;;;;;;;17.70;12.18;;;;;;;15.29;100.00;95407.88;5059234;28;20059;-67
2022/07/17 03:01:08;;;;;;;15.43;11.00;;;;;;;15.24;100.00;95420.94;5060161;28;20044;-67
2022/07/17 03:03:35;;;;;;;11.43;9.95;;;;;;;15.21;100.00;95418.78;5059599;28;20071;-67
2022/07/17 03:06:02;;;;;;;15.65;10.38;;;;;;;15.11;100.00;95422.09;5058233;28;20053;-68
2022/07/17 03:08:29;;;;;;;14.32;9.68;;;;;;;15.10;100.00;95421.28;5058324;28;20054;-68
2022/07/17 03:10:56;;;;;;;18.17;13.15;;;;;;;15.14;100.00;95424.22;5059665;28;20040;-67
2022/07/17 03:13:23;;;;;;;18.90;11.00;;;;;;;15.07;100.00;95421.81;5060003;28;20131;-68
2022/07/17 03:15:50;;;;;;;13.07;11.68;;;;;;;15.18;100.00;95427.16;5060839;28;20051;-68
2022/07/17 03:18:17;;;;;;;20.40;10.95;;;;;;;15.20;100.00;95430.34;5066443;28;20044;-68
2022/07/17 03:20:44;;;;;;;12.60;8.57;;;;;;;15.26;100.00;95416.22;5057618;28;20047;-67
2022/07/17 03:23:11;;;;;;;12.75;10.68;;;;;;;15.35;100.00;95421.84;5058739;28;20071;-67
2022/07/17 03:25:38;;;;;;;15.15;8.48;;;;;;;15.27;100.00;95413.38;5067969;28;20043;-67
2022/07/17 03:28:04;;;;;;;11.35;9.13;;;;;;;15.41;100.00;95432.16;5065775;28;20075;-67
2022/07/17 03:30:31;;;;;;;13.82;9.20;;;;;;;15.45;100.00;95437.72;5068065;28;20061;-68
2022/07/17 03:32:58;;;;;;;12.40;9.52;;;;;;;15.46;100.00;95434.81;5072892;28;20136;-68
2022/07/17 03:35:25;;;;;;;15.00;9.52;;;;;;;15.52;100.00;95442.75;5065367;28;20041;-68
2022/07/17 03:37:52;;;;;;;12.63;8.45;;;;;;;15.50;100.00;95443.00;5069147;28;20506;-68
2022/07/17 03:40:19;;;;;;;11.30;8.98;;;;;;;15.56;100.00;95433.34;5060189;28;20044;-67
2022/07/17 03:42:46;;;;;;;12.93;9.75;;;;;;;15.61;100.00;95441.25;5063597;28;20051;-68
2022/07/17 03:45:15;;;;;;;12.68;8.75;;;;;;;15.67;100.00;95440.28;5064162;28;20044;-67
2022/07/17 03:47:42;;;;;;;12.60;9.13;;;;;;;15.77;100.00;95439.63;5059060;28;20045;-67
2022/07/17 03:50:09;;;;;;;14.07;8.98;;;;;;;15.86;100.00;95444.19;5064772;28;20509;-67
2022/07/17 03:52:36;;;;;;;13.38;8.98;;;;;;;15.96;100.00;95443.47;5068710;28;20134;-68
2022/07/17 03:55:03;;;;;;;13.77;8.68;;;;;;;16.05;100.00;95454.31;5060977;28;20041;-68
2022/07/17 03:57:30;;;;;;;12.20;8.68;;;;;;;16.18;100.00;95456.53;5061260;28;20052;-68
2022/07/17 03:59:57;;;;;;;11.10;8.02;;;;;;;16.25;100.00;95462.38;5067876;28;20757;-67
2022/07/17 04:02:23;;;;;;;9.50;7.53;;;;;;;16.28;100.00;95455.00;5062937;28;20036;-68
2022/07/17 04:04:50;;;;;;;9.75;6.97;;;;;;;16.54;100.00;95474.41;5070149;28;20046;-67
2022/07/17 04:07:26;;;;;;;9.52;7.57;;;;;;;16.69;100.00;95481.59;5059624;28;20056;-68
2022/07/17 04:09:55;;;;;;;13.77;7.13;;;;;;;16.84;100.00;95484.38;5064501;28;20066;-69
2022/07/17 04:12:23;;;;;;;12.35;6.70;;;;;;;16.94;100.00;95473.91;5058529;28;20041;-67
2022/07/17 04:14:50;;;;;;;7.47;6.35;;;;;;;16.96;100.00;95466.56;5062155;28;20130;-67
2022/07/17 04:17:17;;;;;;;9.18;6.60;;;;;;;17.24;100.00;95483.00;5067159;28;20061;-67
2022/07/17 04:19:44;;;;;;;13.20;7.03;;;;;;;17.32;100.00;95474.63;5060226;28;20040;-67
2022/07/17 04:22:11;;;;;;;7.95;6.65;;;;;;;17.38;100.00;95484.09;5064905;28;20619;-67
2022/07/17 04:24:38;;;;;;;10.77;6.53;;;;;;;17.51;100.00;95488.09;5061698;28;20721;-67
2022/07/17 04:27:05;;;;;;;11.18;5.70;;;;;;;17.58;99.81;95487.88;5064239;28;20070;-68
2022/07/17 04:29:33;;;;;;;6.75;5.15;;;;;;;17.63;99.15;95495.78;5065011;28;20045;-67
2022/07/17 04:32:00;;;;;;;8.02;5.63;;;;;;;17.71;97.98;95500.53;5062791;28;20510;-68
2022/07/17 04:34:27;;;;;;;7.32;6.20;;;;;;;17.81;98.08;95509.50;5059987;28;20048;-67
2022/07/17 04:36:59;;;;;;;12.13;6.20;;;;;;;17.94;97.05;95509.06;5056398;28;20063;-68
2022/07/17 04:39:26;;;;;;;7.65;5.95;;;;;;;18.05;96.41;95517.78;5055258;28;20049;-67
2022/07/17 04:41:53;;;;;;;9.43;6.05;;;;;;;18.13;96.15;95510.16;5063322;28;20036;-68
2022/07/17 04:44:20;;;;;;;13.52;7.30;;;;;;;18.12;95.26;95492.75;5060243;22;20046;-70
2022/07/17 04:46:49;;;;;;;13.80;5.90;;;;;;;18.23;94.67;95490.13;5022138;28;20442;-83
2022/07/17 04:49:17;;;;;;;6.95;6.07;;;;;;;18.21;92.58;95479.06;5026084;28;20065;-85
2022/07/17 04:51:44;;;;;;;9.93;5.93;;;;;;;18.39;93.12;95497.00;5013116;28;20041;-83
2022/07/17 04:54:11;;;;;;;8.07;6.55;;;;;;;18.27;93.64;95483.28;5039338;28;20033;-84
2022/07/17 04:56:39;;;;;;;7.60;6.07;;;;;;;18.56;91.16;95522.31;5043980;28;20148;-80
2022/07/17 04:59:07;;;;;;;7.40;6.00;;;;;;;18.56;92.00;95528.38;5050270;28;20042;-86
2022/07/17 05:01:34;;;;;;;7.80;5.80;;;;;;;18.67;91.39;95521.25;5048469;28;20041;-86
2022/07/17 05:04:04;;;;;;;7.82;5.80;;;;;;;18.84;91.17;95528.94;5051537;28;20041;-86
2022/07/17 05:06:32;;;;;;;11.32;6.97;;;;;;;18.79;90.49;95505.16;5063850;28;20101;-86
2022/07/17 05:09:00;;;;;;;6.65;5.45;;;;;;;19.17;88.26;95538.09;5034620;28;20510;-87
2022/07/17 05:11:27;;;;;;;10.40;5.47;;;;;;;19.29;86.97;95541.22;5047330;28;20053;-86
2022/07/17 05:13:54;;;;;;;11.13;5.32;;;;;;;19.40;87.65;95547.28;5046429;28;20069;-85
2022/07/17 05:16:21;;;;;;;10.98;6.85;;;;;;;19.28;86.18;95513.25;5044647;28;20038;-85
2022/07/17 05:18:49;;;;;;;6.15;5.55;;;;;;;19.57;85.21;95536.41;5010844;28;20511;-84
2022/07/17 05:21:18;;;;;;;9.35;5.85;;;;;;;19.60;84.53;95535.06;5025342;28;20063;-85
2022/07/17 05:23:45;;;;;;;10.70;4.78;;;;;;;19.39;83.29;95478.88;5003298;28;20049;-87
2022/07/17 05:26:12;;;;;;;7.35;4.93;;;;;;;19.76;82.04;95519.97;5019981;28;20045;-84
2022/07/17 05:28:40;;;;;;;9.25;4.85;;;;;;;19.95;81.21;95531.50;5017302;28;20045;-83
2022/07/17 05:31:07;;;;;;;6.10;4.25;;;;;;;20.10;80.89;95538.53;5020368;28;20049;-84
2022/07/17 05:33:34;;;;;;;6.82;4.85;;;;;;;20.20;81.98;95537.69;5014823;28;20049;-84
2022/07/17 05:36:02;;;;;;;16.38;5.43;;;;;;;20.36;80.94;95536.50;5021266;28;20038;-84
2022/07/17 05:38:29;;;;;;;5.95;4.85;;;;;;;20.48;80.05;95538.03;5021015;28;20041;-84
2022/07/17 05:40:56;;;;;;;5.85;4.45;;;;;;;20.37;79.35;95521.44;5023302;28;20048;-85
2022/07/17 05:43:23;;;;;;;7.90;5.07;;;;;;;19.91;79.95;95453.78;5018128;28;20033;-85
2022/07/17 05:45:54;;;;;;;6.57;4.95;;;;;;;20.66;78.90;95533.97;5018450;28;20521;-85
2022/07/17 05:48:21;;;;;;;22.27;6.28;;;;;;;20.65;79.66;95538.44;5020015;28;20053;-84
2022/07/17 05:50:49;;;;;;;12.70;5.63;;;;;;;20.69;79.73;95501.63;5020315;28;20247;-85
2022/07/17 05:53:19;;;;;;;16.00;6.90;;;;;;;20.85;81.65;95526.09;5033080;28;20049;-85
2022/07/17 05:55:47;;;;;;;12.75;6.53;;;;;;;20.97;80.80;95519.34;5022044;28;20128;-85
2022/07/17 05:58:14;;;;;;;12.07;6.50;;;;;;;21.04;80.41;95513.75;5022786;28;20077;-85
2022/07/17 06:00:41;;;;;;;21.63;6.00;;;;;;;21.23;78.35;95526.25;5020885;28;20034;-86
2022/07/17 06:03:08;;;;;;;16.50;5.85;;;;;;;21.45;75.56;95545.13;5022079;28;20439;-85
2022/07/17 06:05:36;;;;;;;16.30;6.03;;;;;;;21.51;75.37;95517.47;5014150;28;20041;-86
2022/07/17 06:08:04;;;;;;;18.25;4.57;;;;;;;21.44;71.07;95509.06;5004931;28;20461;-86
2022/07/17 06:10:31;;;;;;;5.45;4.60;;;;;;;21.79;71.13;95538.09;5022669;28;20485;-86
2022/07/17 06:12:59;;;;;;;6.60;4.75;;;;;;;21.99;72.64;95537.84;5021426;28;20049;-86
2022/07/17 06:15:27;;;;;;;7.78;5.03;;;;;;;22.26;74.33;95553.16;5021385;28;20064;-86
2022/07/17 06:17:54;;;;;;;7.10;4.80;;;;;;;22.21;73.81;95518.69;5020960;28;20053;-85
2022/07/17 06:20:21;;;;;;;5.70;3.88;;;;;;;22.57;70.89;95552.69;5005127;28;20515;-86
2022/07/17 06:22:48;;;;;;;6.40;3.63;;;;;;;22.53;63.48;95519.84;4988110;28;20075;-85
2022/07/17 06:25:15;;;;;;;6.80;3.83;;;;;;;22.69;60.86;95550.38;5036970;28;20049;-85
2022/07/17 06:27:42;;;;;;;7.18;3.10;;;;;;;22.77;57.05;95550.78;5017544;28;20047;-86
2022/07/17 06:30:11;;;;;;;7.10;3.88;;;;;;;22.86;58.71;95538.41;5021604;28;20045;-86
2022/07/17 06:32:38;;;;;;;9.25;3.10;;;;;;;22.92;58.87;95542.56;5017567;28;20526;-85
2022/07/17 06:35:06;;;;;;;9.70;3.45;;;;;;;22.98;57.12;95546.72;5019342;28;20041;-84
2022/07/17 06:37:34;;;;;;;6.47;2.67;;;;;;;23.21;56.82;95568.13;5019172;28;20045;-86
2022/07/17 06:40:02;;;;;;;6.40;2.75;;;;;;;23.23;56.31;95552.69;5017500;28;20545;-85
2022/07/17 06:42:30;;;;;;;6.32;3.40;;;;;;;23.42;54.65;95550.72;5018810;28;20048;-86
2022/07/17 06:44:58;;;;;;;3.83;2.45;;;;;;;23.31;51.58;95543.25;5003497;28;20114;-86
2022/07/17 06:47:25;;;;;;;3.63;2.35;;;;;;;23.55;53.34;95553.69;5021595;28;20044;-86
2022/07/17 06:49:52;;;;;;;3.50;2.70;;;;;;;23.64;51.24;95536.75;5020706;28;20045;-85
2022/07/17 06:52:19;;;;;;;3.55;2.35;;;;;;;23.81;49.96;95568.06;5019180;28;20580;-86
2022/07/17 06:54:46;;;;;;;3.95;2.75;;;;;;;23.88;49.72;95572.19;5019200;28;20033;-86
2022/07/17 06:57:51;;;;;;;6.15;2.55;;;;;;;23.67;49.76;95546.78;5023478;28;20126;-86
2022/07/17 07:00:18;;;;;;;5.70;3.40;;;;;;;23.89;50.27;95568.47;5021037;28;20060;-86
2022/07/17 07:02:45;;;;;;;6.68;2.67;;;;;;;24.15;46.58;95564.19;5022042;28;20037;-85
2022/07/17 07:05:12;;;;;;;4.30;2.78;;;;;;;24.26;47.58;95556.00;5002224;28;20148;-85
2022/07/17 07:07:39;;;;;;;4.65;2.28;;;;;;;24.51;46.22;95566.06;5019929;28;20076;-83
2022/07/17 07:10:08;;;;;;;7.85;3.38;;;;;;;24.59;47.03;95573.34;5020109;28;20111;-69
2022/07/17 07:12:35;;;;;;;4.93;4.30;;;;;;;24.83;45.86;95569.59;5015703;28;20556;-69
2022/07/17 07:15:03;;;;;;;7.57;2.90;;;;;;;24.91;46.14;95576.06;5016148;28;20285;-67
2022/07/17 07:17:37;;;;;;;2.95;2.60;;;;;;;24.94;45.31;95573.59;5017682;28;20045;-67
2022/07/17 07:20:04;;;;;;;3.75;2.15;;;;;;;25.06;44.60;95577.56;5017312;28;20054;-68
2022/07/17 07:22:32;;;;;;;6.88;2.80;;;;;;;25.03;45.32;95588.81;5018950;28;20064;-68
2022/07/17 07:24:58;;;;;;;5.03;3.08;;;;;;;25.06;44.68;95582.88;5019848;28;20132;-66
2022/07/17 07:27:29;;;;;;;6.50;3.00;;;;;;;25.14;45.08;95568.84;5017894;28;20529;-67
2022/07/17 07:29:57;;;;;;;3.67;2.55;;;;;;;25.13;44.91;95575.25;5000712;28;20441;-66
2022/07/17 07:32:23;;;;;;;4.75;2.70;;;;;;;25.31;45.84;95568.94;5016482;28;20049;-66
2022/07/17 07:34:50;;;;;;;2.78;2.22;;;;;;;25.32;43.41;95573.19;5017977;28;20044;-67
2022/07/17 07:37:18;;;;;;;3.35;2.55;;;;;;;25.21;44.87;95577.19;5020916;28;20123;-68
2022/07/17 07:39:45;;;;;;;3.55;2.65;;;;;;;25.32;44.08;95562.53;5020385;28;20037;-67
2022/07/17 07:42:11;;;;;;;4.20;2.60;;;;;;;25.34;44.82;95567.56;5020057;28;20044;-69
2022/07/17 07:44:38;;;;;;;6.38;2.92;;;;;;;25.41;45.33;95580.41;5019181;28;20057;-68
2022/07/17 07:47:05;;;;;;;2.88;1.90;;;;;;;25.36;42.86;95576.81;5019076;28;20049;-69
2022/07/17 07:49:32;;;;;;;2.72;2.25;;;;;;;25.22;43.84;95570.75;5027450;28;20042;-68
2022/07/17 07:52:08;;;;;;;3.70;2.63;;;;;;;25.60;45.13;95575.63;5021894;28;20049;-68
2022/07/17 07:54:38;;;;;;;9.60;3.17;;;;;;;25.70;43.85;95580.69;5022264;28;20049;-67
2022/07/17 07:57:05;;;;;;;8.07;2.75;;;;;;;25.70;42.77;95580.69;5019550;28;20045;-68
2022/07/17 07:59:32;;;;;;;4.32;2.80;;;;;;;25.63;42.67;95569.69;5018636;28;20045;-70
2022/07/17 08:02:00;;;;;;;3.63;2.40;;;;;;;25.93;40.45;95575.31;5020448;28;20044;-72
2022/07/17 08:04:27;;;;;;;4.20;2.90;;;;;;;26.20;40.61;95570.78;5022945;28;20426;-70
2022/07/17 08:06:55;;;;;;;3.65;2.60;;;;;;;26.28;39.98;95584.13;5014808;28;20041;-69
2022/07/17 08:09:23;;;;;;;8.95;2.85;;;;;;;26.41;41.54;95577.06;5014937;28;20251;-70
2022/07/17 08:11:50;;;;;;;8.38;2.80;;;;;;;26.46;41.34;95579.59;5003451;28;20246;-68
2022/07/17 08:14:17;;;;;;;5.82;2.92;;;;;;;26.79;41.16;95576.44;5020675;28;20041;-69
2022/07/17 08:16:44;;;;;;;7.55;2.58;;;;;;;26.82;39.10;95580.41;5024862;28;20045;-68
2022/07/17 08:19:11;;;;;;;4.45;2.80;;;;;;;26.75;39.73;95585.44;5023687;28;20115;-68
2022/07/17 08:21:38;;;;;;;6.50;2.30;;;;;;;27.12;39.29;95583.97;5023902;28;20042;-69
2022/07/17 08:24:06;;;;;;;3.38;2.15;;;;;;;27.19;36.84;95578.91;5023934;28;20033;-69
2022/07/17 08:26:33;;;;;;;3.45;2.20;;;;;;;27.14;37.74;95581.75;5022477;28;20375;-69
2022/07/17 08:29:00;;;;;;;8.35;2.63;;;;;;;27.43;38.26;95582.94;5019607;28;20530;-68
2022/07/17 08:31:27;;;;;;;5.95;2.53;;;;;;;27.23;37.39;95590.53;5023372;28;20052;-68
2022/07/17 08:33:54;;;;;;;3.65;2.45;;;;;;;27.47;36.19;95581.19;5024317;28;20089;-68
2022/07/17 08:36:21;;;;;;;3.92;2.47;;;;;;;27.87;37.19;95580.06;5020826;28;20052;-68
2022/07/17 08:38:48;;;;;;;3.67;2.85;;;;;;;28.12;35.15;95575.69;5023680;28;20042;-67
2022/07/17 08:41:16;;;;;;;6.65;2.10;;;;;;;28.10;34.85;95583.28;5019503;28;20454;-67
2022/07/17 08:43:44;;;;;;;8.20;2.33;;;;;;;28.44;35.38;95581.47;5021315;28;20046;-68
2022/07/17 08:46:11;;;;;;;4.20;2.22;;;;;;;28.75;33.90;95584.53;5021863;28;20077;-70
2022/07/17 08:48:44;;;;;;;5.43;2.78;;;;;;;29.15;35.19;95577.88;5022424;28;20546;-67
2022/07/17 08:51:12;;;;;;;4.13;2.38;;;;;;;29.41;33.51;95574.91;5020854;28;20068;-67
2022/07/17 08:53:40;;;;;;;3.47;2.38;;;;;;;29.68;34.03;95572.69;5020959;28;20041;-68
2022/07/17 08:56:07;;;;;;;4.03;2.40;;;;;;;29.89;34.35;95578.75;5022018;28;20061;-67
2022/07/17 08:58:34;;;;;;;12.70;3.13;;;;;;;29.99;33.22;95584.78;5021910;28;21678;-66
2022/07/17 09:01:02;;;;;;;5.38;2.35;;;;;;;30.12;33.22;95575.59;5013962;28;20129;-67
2022/07/17 09:03:28;;;;;;;6.15;2.10;;;;;;;30.37;33.52;95570.19;5022676;28;20041;-67
2022/07/17 09:05:55;;;;;;;4.43;2.40;;;;;;;30.47;31.46;95572.41;5019563;28;20125;-66
2022/07/17 09:08:24;;;;;;;5.25;2.35;;;;;;;30.67;32.04;95573.34;5024359;28;20048;-67
2022/07/17 09:10:53;;;;;;;3.53;2.10;;;;;;;30.77;32.21;95577.44;5022138;28;20049;-67
2022/07/17 09:13:28;;;;;;;4.25;2.40;;;;;;;30.98;32.62;95572.66;5021340;28;20844;-67
2022/07/17 09:15:58;;;;;;;4.85;2.42;;;;;;;31.23;31.66;95577.91;5023851;28;20046;-68
2022/07/17 09:18:25;;;;;;;4.63;2.63;;;;;;;31.31;30.15;95582.34;5020267;28;20045;-67
2022/07/17 09:20:55;;;;;;;6.53;2.58;;;;;;;31.56;29.97;95580.28;5024644;28;20083;-67
2022/07/17 09:23:24;;;;;;;3.72;2.00;;;;;;;31.74;28.78;95580.72;5024799;28;21503;-68
2022/07/17 09:25:53;;;;;;;3.03;2.15;;;;;;;31.80;29.30;95584.72;5022935;28;20120;-67
2022/07/17 09:28:22;;;;;;;2.85;2.25;;;;;;;31.81;27.20;95591.66;5024122;28;20050;-69
2022/07/17 09:30:52;;;;;;;5.97;2.00;;;;;;;31.53;27.48;95586.38;5023844;28;20045;-67
2022/07/17 09:33:28;;;;;;;4.10;2.30;;;;;;;31.54;26.95;95584.47;5020167;28;20057;-68
2022/07/17 09:36:12;;;;;;;5.63;2.33;;;;;;;31.43;27.77;95576.09;5024022;28;20045;-67
2022/07/17 09:38:41;;;;;;;3.20;2.38;;;;;;;31.28;27.44;95571.47;5021816;28;20060;-67
2022/07/17 09:41:12;;;;;;;3.63;1.98;;;;;;;31.53;27.22;95575.63;5022235;28;20041;-67
2022/07/17 09:43:52;;;;;;;5.70;1.92;;;;;;;31.73;27.37;95578.34;5021667;28;20080;-67
2022/07/17 09:46:26;;;;;;;2.97;1.95;;;;;;;31.61;27.39;95576.56;5022897;28;20069;-68
2022/07/17 09:48:55;;;;;;;2.92;2.17;;;;;;;31.53;26.34;95581.00;5022750;28;20493;-67
2022/07/17 09:51:36;;;;;;;4.07;2.80;;;;;;;31.58;27.63;95569.94;5019829;28;20037;-68
2022/07/17 09:54:06;;;;;;;3.08;2.20;;;;;;;31.99;28.28;95581.28;5020341;28;20158;-68
2022/07/17 09:56:35;;;;;;;4.07;2.05;;;;;;;31.94;26.43;95584.25;5022029;28;20121;-68
2022/07/17 09:59:05;;;;;;;3.08;1.98;;;;;;;31.71;27.45;95581.44;5021803;28;20052;-67
2022/07/17 10:01:33;;;;;;;2.78;1.73;;;;;;;32.09;26.76;95585.38;5022074;28;20044;-67
2022/07/17 10:04:01;;;;;;;2.50;1.75;;;;;;;32.37;28.04;95579.03;5021836;28;20581;-66
2022/07/17 10:06:28;;;;;;;4.03;1.70;;;;;;;32.25;27.10;95581.84;5018854;28;20053;-66
2022/07/17 10:08:56;;;;;;;7.30;2.13;;;;;;;32.68;27.43;95588.16;5021229;28;20077;-67
2022/07/17 10:11:26;;;;;;;4.65;1.83;;;;;;;32.68;26.90;95582.75;5022087;28;20044;-67
2022/07/17 10:13:56;;;;;;;4.80;2.15;;;;;;;32.11;26.90;95587.75;5018096;28;20376;-67
2022/07/17 10:16:27;;;;;;;4.93;2.17;;;;;;;31.51;27.59;95585.16;5021734;28;20140;-67
2022/07/17 10:18:57;;;;;;;3.83;2.28;;;;;;;30.90;28.80;95573.59;5020357;28;20133;-67
2022/07/17 10:21:27;;;;;;;2.30;1.88;;;;;;;31.03;30.02;95580.47;5017905;28;20045;-68
2022/07/17 10:23:53;;;;;;;4.50;2.38;;;;;;;31.48;29.59;95573.19;5016682;28;20044;-67
2022/07/17 10:26:36;;;;;;;5.10;1.90;;;;;;;31.76;27.86;95578.44;5020805;28;20115;-66
2022/07/17 10:29:06;;;;;;;4.70;1.90;;;;;;;32.09;26.90;95573.81;5014356;28;20049;-66
2022/07/17 10:31:34;;;;;;;1.92;1.67;;;;;;;32.16;25.69;95574.78;5019383;28;20268;-66
2022/07/17 10:34:04;;;;;;;2.38;1.92;;;;;;;31.77;26.70;95584.63;5019611;28;20048;-66
2022/07/17 10:36:41;;;;;;;4.45;2.30;;;;;;;31.85;26.71;95574.78;5018778;28;20561;-67
2022/07/17 10:39:15;;;;;;;3.92;1.98;;;;;;;31.99;26.95;95570.50;5020606;28;20056;-68
2022/07/17 10:41:54;;;;;;;3.35;2.15;;;;;;;32.14;25.19;95566.25;5018610;28;20049;-66
2022/07/17 10:44:27;;;;;;;4.63;2.03;;;;;;;32.48;25.53;95568.47;5021098;28;20056;-67
2022/07/17 10:46:56;;;;;;;6.13;1.98;;;;;;;32.65;24.52;95561.94;5020733;28;20052;-67
2022/07/17 10:49:24;;;;;;;2.88;2.10;;;;;;;33.00;24.70;95566.41;5023306;28;20046;-67
2022/07/17 10:51:52;;;;;;;5.32;1.98;;;;;;;33.22;24.20;95557.56;5020646;28;20045;-68
2022/07/17 10:54:19;;;;;;;2.78;2.03;;;;;;;33.08;25.57;95563.50;5019127;28;20041;-65
2022/07/17 10:56:48;;;;;;;4.57;1.90;;;;;;;33.09;26.03;95553.47;5020996;28;20052;-67
2022/07/17 10:59:16;;;;;;;5.13;1.85;;;;;;;33.16;25.97;95558.25;5020698;28;20052;-70
2022/07/17 11:01:42;;;;;;;4.75;2.10;;;;;;;33.08;25.74;95554.59;5018629;28;20049;-70
2022/07/17 11:04:09;;;;;;;2.83;1.90;;;;;;;32.90;25.33;95563.16;5020771;28;20038;-67
2022/07/17 11:06:38;;;;;;;3.38;2.45;;;;;;;32.72;25.06;95556.66;5020868;28;20049;-67
2022/07/17 11:09:13;;;;;;;3.00;2.20;;;;;;;31.77;25.05;95547.72;5019106;28;20045;-68
2022/07/17 11:11:50;;;;;;;2.42;2.00;;;;;;;32.07;25.07;95552.63;5021049;28;20461;-68
2022/07/17 11:14:25;;;;;;;2.45;1.98;;;;;;;32.17;26.27;95548.59;5017971;28;20038;-68
2022/07/17 11:16:57;;;;;;;3.35;2.25;;;;;;;32.29;26.30;95555.78;5018775;28;20056;-68
2022/07/17 11:19:25;;;;;;;2.30;1.93;;;;;;;32.19;25.82;95547.09;5020300;28;20052;-68
2022/07/17 11:21:53;;;;;;;3.35;2.58;;;;;;;32.24;25.68;95547.97;5020836;28;20628;-68
2022/07/17 11:24:20;;;;;;;3.78;2.10;;;;;;;32.13;26.43;95547.75;5020937;28;20042;-67
2022/07/17 11:26:50;;;;;;;2.55;1.95;;;;;;;32.31;25.62;95542.72;5019065;28;20041;-67
2022/07/17 11:29:18;;;;;;;3.10;2.05;;;;;;;32.58;24.74;95541.75;5020842;28;20053;-68
2022/07/17 11:31:44;;;;;;;2.47;2.00;;;;;;;33.11;25.90;95535.00;5020278;28;20055;-68